Time;durP1;ratioP1;P1;durP2;ratioP2;P2;SDS_P1;SDS_P2;PMS_P1;PMS_P2;Temp;Humidity;BMP_temperature;BMP_pressure;BME280_temperature;BME280_humidity;BME280_pressure;Samples;Min_cycle;Max_cycle;Signal;HPM_P1;HPM_P2
2023/12/17 00:01:09;;;;;;;19.63;14.33;;;3.30;24.70;;;;;;5006375;28;20538;-71
2023/12/17 00:03:36;;;;;;;24.37;15.50;;;3.30;24.20;;;;;;4999740;28;20607;-71
2023/12/17 00:06:03;;;;;;;18.53;12.90;;;3.30;24.00;;;;;;5001157;28;20521;-71
2023/12/17 00:08:30;;;;;;;21.60;13.60;;;3.30;24.10;;;;;;5002203;28;20523;-71
2023/12/17 00:10:56;;;;;;;19.70;12.40;;;3.30;24.00;;;;;;5004193;28;20464;-71
2023/12/17 00:13:24;;;;;;;17.13;12.20;;;3.20;23.70;;;;;;5005365;28;20515;-71
2023/12/17 00:15:51;;;;;;;17.00;11.90;;;3.20;23.40;;;;;;5002919;28;20495;-71
2023/12/17 00:31:16;;;;;;;18.03;13.17;;;3.20;23.40;;;;;;5587037;22;20599;-70
2023/12/17 00:33:43;;;;;;;25.37;13.97;;;3.20;23.40;;;;;;5028777;28;20521;-70
2023/12/17 00:36:10;;;;;;;31.10;15.50;;;3.10;23.30;;;;;;5028150;28;20541;-70
2023/12/17 00:41:13;;;;;;;38.00;17.80;;;3.10;23.10;;;;;;5391935;22;20637;-71
2023/12/17 00:43:40;;;;;;;20.97;12.27;;;3.10;23.20;;;;;;5023297;28;20943;-71
2023/12/17 00:46:07;;;;;;;20.67;13.40;;;3.10;23.20;;;;;;5027773;28;20457;-71
2023/12/17 00:48:35;;;;;;;22.40;12.60;;;3.10;23.20;;;;;;5025863;28;20490;-71
2023/12/17 00:53:37;;;;;;;22.47;14.43;;;3.10;23.30;;;;;;5020588;23;21085;-70
2023/12/17 00:56:05;;;;;;;23.83;12.80;;;3.10;23.30;;;;;;5030604;28;20466;-71
2023/12/17 00:58:32;;;;;;;21.13;12.53;;;3.10;23.20;;;;;;5034493;28;20450;-71
2023/12/17 01:01:01;;;;;;;17.33;11.60;;;3.00;23.10;;;;;;5030131;28;20469;-70
2023/12/17 01:03:28;;;;;;;16.10;11.80;;;3.00;23.30;;;;;;5026737;28;20482;-70
2023/12/17 01:08:33;;;;;;;19.67;11.47;;;2.90;23.30;;;;;;5022007;28;20486;-76
2023/12/17 01:11:00;;;;;;;24.97;13.10;;;2.90;23.10;;;;;;5032496;28;20456;-75
2023/12/17 01:13:26;;;;;;;31.93;15.23;;;2.90;23.20;;;;;;5026200;28;20470;-75
2023/12/17 01:15:53;;;;;;;20.73;12.33;;;2.90;23.10;;;;;;5022633;28;20558;-75
2023/12/17 01:18:20;;;;;;;29.90;14.73;;;2.90;23.00;;;;;;5023320;28;20961;-75
2023/12/17 01:20:47;;;;;;;24.87;13.43;;;2.90;23.00;;;;;;5023600;28;20466;-75
2023/12/17 01:23:14;;;;;;;20.53;13.23;;;2.80;22.90;;;;;;5026889;28;20903;-75
2023/12/17 01:25:42;;;;;;;19.60;12.10;;;2.80;23.10;;;;;;5026078;28;20491;-75
2023/12/17 01:28:09;;;;;;;22.67;12.40;;;2.70;23.20;;;;;;5021682;28;20570;-75
2023/12/17 01:30:36;;;;;;;18.23;12.40;;;2.70;23.20;;;;;;5025509;28;20578;-75
2023/12/17 01:33:03;;;;;;;18.83;12.80;;;2.70;23.50;;;;;;5023913;28;20536;-76
2023/12/17 01:35:31;;;;;;;20.80;12.97;;;2.70;23.40;;;;;;5020048;28;20463;-75
2023/12/17 01:37:58;;;;;;;18.97;12.37;;;2.70;23.30;;;;;;5022942;28;20456;-75
2023/12/17 01:40:25;;;;;;;36.20;17.50;;;2.70;23.90;;;;;;5024987;28;21011;-75
2023/12/17 01:42:54;;;;;;;59.87;20.13;;;2.70;23.30;;;;;;5024849;28;20581;-75
2023/12/17 01:45:21;;;;;;;26.93;14.60;;;2.60;23.30;;;;;;5025556;28;20542;-75
2023/12/17 01:47:48;;;;;;;38.33;18.37;;;2.70;23.50;;;;;;5025785;28;20485;-75
2023/12/17 01:50:15;;;;;;;32.00;19.13;;;2.70;23.80;;;;;;5022894;28;20470;-75
2023/12/17 01:52:43;;;;;;;33.97;17.73;;;2.70;23.70;;;;;;5024623;28;20482;-75
2023/12/17 01:55:10;;;;;;;32.17;17.57;;;2.70;23.70;;;;;;5020812;28;20825;-76
2023/12/17 01:57:37;;;;;;;28.23;14.60;;;2.70;24.40;;;;;;5018115;28;21030;-75
2023/12/17 02:00:07;;;;;;;27.60;15.57;;;2.70;23.90;;;;;;5027026;28;20451;-75
2023/12/17 02:02:34;;;;;;;33.40;14.97;;;2.70;23.90;;;;;;5026712;28;20486;-75
2023/12/17 02:05:02;;;;;;;23.47;14.90;;;2.60;23.80;;;;;;5026626;28;20463;-75
2023/12/17 02:07:29;;;;;;;26.77;15.40;;;2.60;23.90;;;;;;5024685;28;20467;-75
2023/12/17 02:09:56;;;;;;;19.37;12.40;;;2.60;23.70;;;;;;5025617;28;20486;-75
2023/12/17 02:12:27;;;;;;;23.47;14.27;;;2.60;23.60;;;;;;5029775;28;21002;-76
2023/12/17 02:14:54;;;;;;;27.47;15.30;;;2.60;23.50;;;;;;5027673;28;20463;-75
2023/12/17 02:17:28;;;;;;;23.77;14.37;;;2.60;23.40;;;;;;5027467;28;20467;-75
2023/12/17 02:19:55;;;;;;;20.30;13.30;;;2.60;23.40;;;;;;5028233;28;20456;-75
2023/12/17 02:22:23;;;;;;;19.23;13.33;;;2.50;23.60;;;;;;5021909;28;20489;-75
2023/12/17 02:24:53;;;;;;;19.40;12.70;;;2.50;23.50;;;;;;5026561;28;20473;-75
2023/12/17 02:27:21;;;;;;;23.33;13.47;;;2.50;23.50;;;;;;5028297;28;20467;-76
2023/12/17 02:29:48;;;;;;;21.70;12.90;;;2.50;23.50;;;;;;5023557;28;20512;-75
2023/12/17 02:32:16;;;;;;;19.77;13.07;;;2.50;23.50;;;;;;5027907;28;20485;-75
2023/12/17 02:34:42;;;;;;;29.70;17.87;;;2.50;23.50;;;;;;5030307;28;20490;-75
2023/12/17 02:37:09;;;;;;;32.30;17.73;;;2.60;24.20;;;;;;5026332;28;20522;-75
2023/12/17 02:39:36;;;;;;;26.90;15.07;;;2.60;24.40;;;;;;5022902;28;20457;-75
2023/12/17 02:42:05;;;;;;;24.70;15.43;;;2.60;24.50;;;;;;5027640;28;20489;-76
2023/12/17 02:44:32;;;;;;;33.07;16.70;;;2.60;24.40;;;;;;5028379;28;20960;-75
2023/12/17 02:46:59;;;;;;;29.97;16.70;;;2.50;24.50;;;;;;5027540;28;20955;-75
2023/12/17 02:49:26;;;;;;;29.83;17.10;;;2.50;24.40;;;;;;5028296;28;20934;-75
2023/12/17 02:51:53;;;;;;;32.53;18.13;;;2.50;24.40;;;;;;5027002;28;21070;-75
2023/12/17 02:54:20;;;;;;;31.60;16.50;;;2.50;24.30;;;;;;5024450;28;20557;-75
2023/12/17 02:56:47;;;;;;;25.00;15.03;;;2.50;24.30;;;;;;5026773;28;20463;-75
2023/12/17 02:59:15;;;;;;;21.10;13.57;;;2.50;24.10;;;;;;5024938;28;20543;-75
2023/12/17 03:01:43;;;;;;;24.77;13.53;;;2.40;24.00;;;;;;5023733;28;20479;-76
2023/12/17 03:04:11;;;;;;;23.60;15.00;;;2.40;24.00;;;;;;5028526;28;20477;-75
2023/12/17 03:06:38;;;;;;;29.30;15.77;;;2.40;24.00;;;;;;5026434;28;20569;-75
2023/12/17 03:09:06;;;;;;;25.03;17.23;;;2.40;24.20;;;;;;5023841;28;20484;-76
2023/12/17 03:11:33;;;;;;;28.67;16.70;;;2.50;24.80;;;;;;5026780;28;20584;-75
2023/12/17 03:14:00;;;;;;;22.63;15.13;;;2.50;24.80;;;;;;5033126;28;20858;-76
2023/12/17 03:16:28;;;;;;;22.43;14.73;;;2.50;24.50;;;;;;5030076;28;21030;-75
2023/12/17 03:18:55;;;;;;;25.10;15.07;;;2.40;24.40;;;;;;5024867;28;20526;-76
2023/12/17 03:21:23;;;;;;;22.00;14.93;;;2.40;24.40;;;;;;5028513;28;20589;-76
2023/12/17 03:23:50;;;;;;;20.47;14.60;;;2.40;24.40;;;;;;5025174;28;20470;-75
2023/12/17 03:26:17;;;;;;;19.70;13.53;;;2.30;24.40;;;;;;5026855;28;20467;-75
2023/12/17 03:28:44;;;;;;;22.50;14.10;;;2.30;24.30;;;;;;5030761;28;20483;-76
2023/12/17 03:31:13;;;;;;;27.00;15.23;;;2.30;24.90;;;;;;5023617;28;20570;-76
2023/12/17 03:33:42;;;;;;;24.83;16.57;;;2.30;24.20;;;;;;5020400;28;20482;-76
2023/12/17 03:36:09;;;;;;;22.67;16.67;;;2.30;24.30;;;;;;5028845;28;20453;-76
2023/12/17 03:38:36;;;;;;;35.80;17.40;;;2.30;24.40;;;;;;5021154;28;20461;-76
2023/12/17 03:41:03;;;;;;;30.77;16.33;;;2.30;24.60;;;;;;5027904;28;20473;-75
2023/12/17 03:43:30;;;;;;;26.60;16.03;;;2.40;24.70;;;;;;5027902;28;21004;-76
2023/12/17 03:45:56;;;;;;;19.50;13.67;;;2.40;24.60;;;;;;5027776;28;20462;-75
2023/12/17 03:48:23;;;;;;;20.80;14.93;;;2.40;24.60;;;;;;5024278;28;20549;-75
2023/12/17 03:50:52;;;;;;;21.13;14.40;;;2.40;24.50;;;;;;5025800;28;20964;-76
2023/12/17 03:53:17;;;;;;;23.60;15.50;;;2.30;25.10;;;;;;5026462;28;21271;-76
2023/12/17 03:55:44;;;;;;;21.90;15.03;;;2.30;24.50;;;;;;5028434;28;20464;-76
2023/12/17 03:58:11;;;;;;;20.47;13.97;;;2.40;24.40;;;;;;5038298;28;20267;-75
2023/12/17 04:00:38;;;;;;;20.77;13.63;;;2.30;24.50;;;;;;5033521;28;20542;-76
2023/12/17 04:03:04;;;;;;;21.55;15.40;;;2.30;24.70;;;;;;5024671;28;20453;-75
2023/12/17 04:05:30;;;;;;;18.50;12.90;;;2.30;25.70;;;;;;5023475;28;20778;-76
2023/12/17 04:07:59;;;;;;;18.57;12.20;;;2.30;24.90;;;;;;5023741;28;20668;-75
2023/12/17 04:10:26;;;;;;;17.70;11.87;;;2.30;24.70;;;;;;5022003;28;20605;-76
2023/12/17 04:12:52;;;;;;;16.13;11.47;;;2.30;24.70;;;;;;5022730;28;20565;-75
2023/12/17 04:15:19;;;;;;;16.77;11.67;;;2.20;24.70;;;;;;5026165;28;20518;-76
2023/12/17 04:17:47;;;;;;;17.87;12.47;;;2.20;24.60;;;;;;5023593;28;20455;-76
2023/12/17 04:20:14;;;;;;;16.50;11.70;;;2.20;24.60;;;;;;5024499;28;20935;-75
2023/12/17 04:22:41;;;;;;;19.27;13.03;;;2.20;24.50;;;;;;5022896;28;20558;-76
2023/12/17 04:25:10;;;;;;;17.00;12.10;;;2.20;25.00;;;;;;5026271;28;20534;-75
2023/12/17 04:27:36;;;;;;;18.27;11.70;;;2.10;24.60;;;;;;5023017;28;20569;-76
2023/12/17 04:30:04;;;;;;;18.83;12.07;;;2.10;24.40;;;;;;5025989;28;20479;-75
2023/12/17 04:32:31;;;;;;;15.33;10.97;;;2.10;24.50;;;;;;5024195;28;20567;-76
2023/12/17 04:34:58;;;;;;;18.23;10.87;;;2.10;25.00;;;;;;5025759;28;20464;-76
2023/12/17 04:37:25;;;;;;;17.17;10.40;;;2.10;25.00;;;;;;5028106;28;20494;-75
2023/12/17 04:39:51;;;;;;;17.20;11.47;;;2.00;24.30;;;;;;5022266;28;20455;-76
2023/12/17 04:42:20;;;;;;;18.00;10.53;;;2.00;24.30;;;;;;5023434;28;20510;-76
2023/12/17 04:44:46;;;;;;;13.47;10.37;;;2.00;24.50;;;;;;5026813;28;20466;-76
2023/12/17 04:47:13;;;;;;;18.60;11.37;;;2.00;24.50;;;;;;5021237;28;20454;-76
2023/12/17 04:49:41;;;;;;;18.90;12.33;;;2.00;24.50;;;;;;5026880;28;20489;-75
2023/12/17 04:52:08;;;;;;;15.47;10.67;;;2.00;24.70;;;;;;5021781;28;20491;-75
2023/12/17 04:54:35;;;;;;;17.87;11.70;;;2.00;24.90;;;;;;5026404;28;20613;-76
2023/12/17 04:57:01;;;;;;;17.07;11.47;;;2.00;25.50;;;;;;5019008;28;20472;-76
2023/12/17 04:59:30;;;;;;;14.70;9.90;;;2.00;24.90;;;;;;5025315;28;20451;-75
2023/12/17 05:01:56;;;;;;;13.93;10.03;;;2.00;25.60;;;;;;5021332;28;20908;-76
2023/12/17 05:04:23;;;;;;;16.83;10.40;;;2.00;25.00;;;;;;5025375;28;20731;-76
2023/12/17 05:06:50;;;;;;;15.50;9.73;;;2.00;25.00;;;;;;5022085;28;20553;-75
2023/12/17 05:09:17;;;;;;;16.50;10.37;;;1.90;25.00;;;;;;5021295;28;20493;-75
2023/12/17 05:11:44;;;;;;;15.10;9.93;;;1.90;25.00;;;;;;5025108;28;20510;-75
2023/12/17 05:14:11;;;;;;;18.40;11.40;;;1.90;24.90;;;;;;5024281;28;21215;-75
2023/12/17 05:16:41;;;;;;;15.77;10.63;;;1.90;24.90;;;;;;5027527;28;20546;-75
2023/12/17 05:19:09;;;;;;;16.43;10.77;;;1.90;24.90;;;;;;5019639;28;20551;-75
2023/12/17 05:21:36;;;;;;;16.73;11.10;;;1.90;24.90;;;;;;5024806;28;20570;-76
2023/12/17 05:24:03;;;;;;;19.27;11.30;;;1.90;24.90;;;;;;5020654;28;20564;-75
2023/12/17 05:26:30;;;;;;;20.93;11.37;;;1.90;25.00;;;;;;5025376;28;20470;-76
2023/12/17 05:28:57;;;;;;;20.70;11.80;;;1.80;25.10;;;;;;5426401;22;20491;-76
2023/12/17 05:31:24;;;;;;;16.67;10.73;;;1.80;24.90;;;;;;5012481;28;21107;-76
2023/12/17 05:33:52;;;;;;;17.97;10.93;;;1.90;25.00;;;;;;5028096;28;21018;-76
2023/12/17 05:36:19;;;;;;;17.03;11.77;;;1.90;24.90;;;;;;5022565;28;20455;-76
2023/12/17 05:38:46;;;;;;;14.70;9.90;;;1.80;24.90;;;;;;5021278;28;20494;-76
2023/12/17 05:41:13;;;;;;;15.93;10.77;;;1.90;25.50;;;;;;5022407;28;20464;-76
2023/12/17 05:43:40;;;;;;;16.57;10.90;;;1.90;25.50;;;;;;5026313;28;20465;-75
2023/12/17 05:46:10;;;;;;;16.20;11.30;;;1.80;25.40;;;;;;5024470;28;20543;-75
2023/12/17 05:48:37;;;;;;;15.80;11.27;;;1.80;24.70;;;;;;5029256;28;20879;-76
2023/12/17 05:51:09;;;;;;;18.03;11.33;;;1.80;24.70;;;;;;5023853;28;20483;-76
2023/12/17 05:53:36;;;;;;;19.30;11.90;;;1.80;24.70;;;;;;5026754;28;20454;-76
2023/12/17 05:56:03;;;;;;;17.70;11.30;;;1.80;24.70;;;;;;5023373;28;20559;-76
2023/12/17 05:58:30;;;;;;;15.03;10.57;;;1.80;24.80;;;;;;5026576;28;20578;-75
2023/12/17 06:00:57;;;;;;;20.03;13.33;;;1.80;24.90;;;;;;5018909;28;20479;-75
2023/12/17 06:03:24;;;;;;;17.77;11.50;;;1.80;25.00;;;;;;5019480;28;21018;-76
2023/12/17 06:05:51;;;;;;;19.83;11.63;;;1.80;25.20;;;;;;5023294;28;20470;-76
2023/12/17 06:08:19;;;;;;;15.63;10.73;;;1.80;25.30;;;;;;5027803;28;20467;-75
2023/12/17 06:10:46;;;;;;;16.03;11.27;;;1.80;26.10;;;;;;5027884;28;20487;-75
2023/12/17 06:13:13;;;;;;;16.97;11.63;;;1.70;25.50;;;;;;5024570;28;20565;-75
2023/12/17 06:15:40;;;;;;;15.97;11.03;;;1.70;25.70;;;;;;5023427;28;20464;-75
2023/12/17 06:18:07;;;;;;;18.50;11.90;;;1.70;25.70;;;;;;5026766;28;20454;-75
2023/12/17 06:20:33;;;;;;;18.33;11.13;;;1.70;25.70;;;;;;5023171;28;20461;-74
2023/12/17 06:23:00;;;;;;;17.43;12.07;;;1.70;26.00;;;;;;5030522;28;20586;-75
2023/12/17 06:25:28;;;;;;;17.87;12.00;;;1.70;25.80;;;;;;5032787;28;20963;-75
2023/12/17 06:27:55;;;;;;;15.53;11.40;;;1.70;25.80;;;;;;5025313;28;21025;-75
2023/12/17 06:30:22;;;;;;;22.13;12.20;;;1.80;25.80;;;;;;5019476;28;20483;-74
2023/12/17 06:32:49;;;;;;;19.27;12.97;;;1.70;25.80;;;;;;5024746;28;20504;-77
2023/12/17 06:35:16;;;;;;;24.17;13.27;;;1.70;25.90;;;;;;5025290;28;20467;-77
2023/12/17 06:37:42;;;;;;;18.03;12.27;;;1.70;26.30;;;;;;5024968;28;20888;-76
2023/12/17 06:40:10;;;;;;;16.60;11.20;;;1.70;25.60;;;;;;5026782;28;20463;-77
2023/12/17 06:42:38;;;;;;;20.17;12.60;;;1.70;25.50;;;;;;5022031;28;20506;-74
2023/12/17 06:45:06;;;;;;;17.60;11.20;;;1.70;25.60;;;;;;5025539;28;20455;-74
2023/12/17 06:47:33;;;;;;;15.57;10.30;;;1.70;25.60;;;;;;5025985;28;20473;-75
2023/12/17 06:50:00;;;;;;;19.33;11.70;;;1.70;25.50;;;;;;5030319;28;20474;-75
2023/12/17 06:52:27;;;;;;;18.60;11.83;;;1.70;25.50;;;;;;5032840;28;20489;-74
2023/12/17 06:54:53;;;;;;;30.57;11.57;;;1.70;25.40;;;;;;5029075;28;20557;-74
2023/12/17 06:57:20;;;;;;;24.83;10.80;;;1.70;25.30;;;;;;5024825;28;20496;-74
2023/12/17 06:59:48;;;;;;;26.27;11.83;;;1.70;25.30;;;;;;5026753;28;20546;-73
2023/12/17 07:02:16;;;;;;;19.47;12.13;;;1.70;25.40;;;;;;5024811;28;20492;-74
2023/12/17 07:04:43;;;;;;;18.30;11.53;;;1.70;25.30;;;;;;5022080;28;20469;-73
2023/12/17 07:07:09;;;;;;;32.40;11.73;;;1.70;25.50;;;;;;5024834;28;20471;-74
2023/12/17 07:09:36;;;;;;;19.73;11.17;;;1.60;26.20;;;;;;5026036;28;20886;-73
2023/12/17 07:12:03;;;;;;;18.00;10.73;;;1.70;25.50;;;;;;5027717;28;21100;-73
2023/12/17 07:14:30;;;;;;;17.37;12.40;;;1.70;25.30;;;;;;5030088;28;20544;-73
2023/12/17 07:16:58;;;;;;;17.20;11.20;;;1.70;25.40;;;;;;5030987;28;20458;-73
2023/12/17 07:19:25;;;;;;;18.70;11.20;;;1.70;25.20;;;;;;5027465;28;20473;-73
2023/12/17 07:21:52;;;;;;;21.23;11.93;;;1.70;25.20;;;;;;5024719;28;21032;-73
2023/12/17 07:24:19;;;;;;;18.97;12.60;;;1.70;25.20;;;;;;5026113;28;20970;-74
2023/12/17 07:26:48;;;;;;;19.00;11.60;;;1.70;25.20;;;;;;5029863;28;20473;-75
2023/12/17 07:29:15;;;;;;;17.03;10.77;;;1.80;25.30;;;;;;5026066;28;20491;-73
2023/12/17 07:31:42;;;;;;;17.03;10.77;;;1.80;25.30;;;;;;5030253;28;20478;-73
2023/12/17 07:34:13;;;;;;;20.00;12.90;;;1.90;25.70;;;;;;5027908;28;21301;-73
2023/12/17 07:36:39;;;;;;;16.10;11.60;;;2.00;24.80;;;;;;5023058;28;20542;-73
2023/12/17 07:39:06;;;;;;;17.53;10.90;;;2.00;24.80;;;;;;5024644;28;20455;-73
2023/12/17 07:41:33;;;;;;;14.00;10.83;;;2.10;24.70;;;;;;5029143;28;20475;-73
2023/12/17 07:44:00;;;;;;;19.47;11.67;;;2.10;24.70;;;;;;5024871;28;20826;-74
2023/12/17 07:46:27;;;;;;;15.63;11.20;;;2.10;24.60;;;;;;5025891;28;20469;-73
2023/12/17 07:48:54;;;;;;;15.40;11.13;;;2.20;24.50;;;;;;5026546;28;20459;-73
2023/12/17 07:51:23;;;;;;;13.80;9.43;;;2.30;24.60;;;;;;5026659;28;20475;-74
2023/12/17 07:53:50;;;;;;;17.27;11.40;;;2.40;24.30;;;;;;5024236;28;20454;-73
2023/12/17 07:56:16;;;;;;;16.30;10.87;;;2.50;24.50;;;;;;5027877;28;20463;-73
2023/12/17 07:58:46;;;;;;;18.03;12.33;;;2.60;24.40;;;;;;5026850;28;20459;-73
2023/12/17 08:01:13;;;;;;;19.27;12.17;;;2.70;24.40;;;;;;5022488;28;20471;-74
2023/12/17 08:03:40;;;;;;;22.60;12.43;;;2.90;24.30;;;;;;5021085;28;20560;-74
2023/12/17 08:06:07;;;;;;;20.17;12.83;;;3.30;23.90;;;;;;5028241;28;20474;-74
2023/12/17 08:08:35;;;;;;;16.70;12.10;;;3.80;22.80;;;;;;5028217;28;20467;-75
2023/12/17 08:11:11;;;;;;;14.90;11.03;;;4.40;21.60;;;;;;5024956;28;20486;-74
2023/12/17 08:13:38;;;;;;;17.03;11.30;;;5.10;20.90;;;;;;5020616;28;20474;-75
2023/12/17 08:16:06;;;;;;;16.53;11.00;;;5.70;17.90;;;;;;5020899;28;20451;-75
2023/12/17 08:18:34;;;;;;;16.50;11.60;;;6.30;16.30;;;;;;5020768;28;20470;-75
2023/12/17 08:21:01;;;;;;;13.90;10.27;;;6.60;14.70;;;;;;5018183;28;21446;-74
2023/12/17 08:23:28;;;;;;;14.87;10.10;;;6.80;14.10;;;;;;5024056;28;20565;-76
2023/12/17 08:25:56;;;;;;;15.60;10.53;;;7.10;13.50;;;;;;5022999;28;20471;-75
2023/12/17 08:28:23;;;;;;;15.97;10.47;;;7.40;13.10;;;;;;5021412;28;21233;-75
2023/12/17 08:30:51;;;;;;;13.93;10.30;;;7.60;13.00;;;;;;5017103;28;20574;-75
2023/12/17 08:33:18;;;;;;;13.67;10.00;;;7.90;12.30;;;;;;5019605;28;20576;-76
2023/12/17 08:35:47;;;;;;;13.83;9.70;;;8.20;11.80;;;;;;5026724;28;20558;-77
2023/12/17 08:38:14;;;;;;;14.40;10.47;;;8.50;11.50;;;;;;5018864;28;20943;-76
2023/12/17 08:40:42;;;;;;;15.07;10.13;;;8.90;9.20;;;;;;5023453;28;20558;-78
2023/12/17 08:43:10;;;;;;;14.13;10.27;;;9.00;8.30;;;;;;5031001;28;20614;-82
2023/12/17 08:45:37;;;;;;;14.47;10.87;;;9.20;8.00;;;;;;5032626;28;20471;-83
2023/12/17 08:48:05;;;;;;;13.63;10.30;;;9.20;7.50;;;;;;5031032;28;20463;-73
2023/12/17 08:50:32;;;;;;;14.07;9.87;;;9.20;7.80;;;;;;5027002;28;20489;-73
2023/12/17 08:52:58;;;;;;;13.20;9.87;;;9.30;7.80;;;;;;5031345;28;20570;-75
2023/12/17 08:55:25;;;;;;;15.00;10.93;;;9.30;7.50;;;;;;5027140;28;20546;-74
2023/12/17 08:57:52;;;;;;;14.93;11.00;;;9.30;7.90;;;;;;5025857;28;20463;-73
2023/12/17 09:00:21;;;;;;;17.17;11.10;;;9.40;7.70;;;;;;5020615;28;20455;-73
2023/12/17 09:02:48;;;;;;;12.93;9.40;;;9.50;7.30;;;;;;5019980;28;20489;-73
2023/12/17 09:05:15;;;;;;;11.93;9.10;;;9.60;7.30;;;;;;5026531;28;20458;-73
2023/12/17 09:07:42;;;;;;;12.63;9.80;;;9.70;7.60;;;;;;5023984;28;20991;-74
2023/12/17 09:10:09;;;;;;;16.60;11.50;;;9.90;6.90;;;;;;5025154;28;21073;-74
2023/12/17 09:12:36;;;;;;;13.20;10.20;;;10.10;6.80;;;;;;5022489;28;20487;-74
2023/12/17 09:15:03;;;;;;;12.47;9.83;;;10.30;6.00;;;;;;5022572;28;21029;-73
2023/12/17 09:17:31;;;;;;;14.57;10.77;;;10.50;5.20;;;;;;5018983;28;20542;-74
2023/12/17 09:19:58;;;;;;;13.30;9.70;;;10.80;4.50;;;;;;5024457;28;20558;-74
2023/12/17 09:22:25;;;;;;;13.57;9.50;;;11.20;3.70;;;;;;5026272;28;20474;-74
2023/12/17 09:24:52;;;;;;;14.43;10.50;;;11.60;2.90;;;;;;5025168;28;20472;-72
2023/12/17 09:27:19;;;;;;;16.30;11.23;;;12.00;1.80;;;;;;5028404;28;20467;-75
2023/12/17 09:29:48;;;;;;;12.37;10.50;;;12.10;1.20;;;;;;5037716;28;20557;-83
2023/12/17 09:32:15;;;;;;;14.57;10.47;;;12.10;1.00;;;;;;5043485;23;20580;-72
2023/12/17 09:34:43;;;;;;;14.20;10.53;;;12.00;1.50;;;;;;5045027;28;20505;-72
2023/12/17 09:37:10;;;;;;;14.00;10.57;;;11.90;1.10;;;;;;5039774;28;20907;-71
2023/12/17 09:39:37;;;;;;;14.63;11.40;;;11.80;1.70;;;;;;5045968;28;20519;-71
2023/12/17 09:42:05;;;;;;;15.40;9.93;;;11.80;1.60;;;;;;5041650;28;20548;-71
2023/12/17 09:44:32;;;;;;;12.87;9.90;;;11.80;1.60;;;;;;5045048;28;20477;-71
2023/12/17 09:46:59;;;;;;;15.17;11.27;;;11.90;1.50;;;;;;5043365;28;20540;-71
2023/12/17 09:49:26;;;;;;;12.97;10.27;;;12.20;1.30;;;;;;5038827;28;20544;-71
2023/12/17 09:52:04;;;;;;;12.37;10.63;;;12.40;1.00;;;;;;5032141;28;20491;-71
2023/12/17 09:54:31;;;;;;;14.87;10.83;;;12.60;1.00;;;;;;5029241;28;20574;-74
2023/12/17 09:56:59;;;;;;;12.77;9.63;;;12.60;1.00;;;;;;5023598;28;20494;-73
2023/12/17 09:59:27;;;;;;;14.53;11.63;;;12.70;1.00;;;;;;5032136;28;20486;-73
2023/12/17 10:01:54;;;;;;;15.67;11.90;;;12.70;1.00;;;;;;5043323;28;20535;-73
2023/12/17 10:04:24;;;;;;;16.23;12.23;;;12.70;1.00;;;;;;5045162;28;20573;-73
2023/12/17 10:06:51;;;;;;;15.60;11.53;;;12.60;1.00;;;;;;5041493;28;20502;-74
2023/12/17 10:09:19;;;;;;;16.37;11.50;;;12.80;1.00;;;;;;5045195;28;20507;-74
2023/12/17 10:11:46;;;;;;;13.80;11.83;;;12.80;1.00;;;;;;5043520;28;21096;-73
2023/12/17 10:14:23;;;;;;;16.67;12.23;;;12.80;1.00;;;;;;5040948;28;20547;-73
2023/12/17 10:16:51;;;;;;;16.47;12.33;;;13.00;1.00;;;;;;5043815;28;20516;-73
2023/12/17 10:19:18;;;;;;;14.53;11.27;;;13.10;1.00;;;;;;5041463;28;20464;-71
2023/12/17 10:21:45;;;;;;;17.43;12.53;;;13.20;1.00;;;;;;5045761;28;20454;-72
2023/12/17 10:24:12;;;;;;;14.73;11.23;;;13.40;1.00;;;;;;5048577;28;20582;-71
2023/12/17 10:26:45;;;;;;;16.93;11.80;;;13.40;1.00;;;;;;5041969;28;20490;-71
2023/12/17 10:29:14;;;;;;;15.30;11.50;;;13.40;1.00;;;;;;5043828;28;20833;-71
2023/12/17 10:31:42;;;;;;;16.47;11.30;;;13.60;1.00;;;;;;5044775;28;20470;-72
2023/12/17 10:34:18;;;;;;;15.10;11.10;;;13.60;1.00;;;;;;5043976;28;20567;-72
2023/12/17 10:36:46;;;;;;;12.80;10.73;;;13.60;1.00;;;;;;5046489;28;20476;-72
2023/12/17 10:39:15;;;;;;;12.83;10.10;;;13.70;1.00;;;;;;5046001;28;20474;-72
2023/12/17 10:41:44;;;;;;;14.50;9.50;;;13.80;1.00;;;;;;5049647;28;20462;-72
2023/12/17 10:44:12;;;;;;;14.67;11.80;;;13.90;1.00;;;;;;5043386;28;20574;-72
2023/12/17 10:46:41;;;;;;;14.37;10.57;;;14.10;1.00;;;;;;5047781;28;20466;-72
2023/12/17 10:49:08;;;;;;;12.47;9.73;;;14.20;1.00;;;;;;5044302;28;20588;-72
2023/12/17 10:51:39;;;;;;;12.40;10.10;;;14.30;1.00;;;;;;5046918;28;20564;-72
2023/12/17 10:54:06;;;;;;;12.30;9.90;;;14.30;1.00;;;;;;5044907;28;21067;-72
2023/12/17 10:56:37;;;;;;;11.67;9.40;;;14.40;1.00;;;;;;5044599;28;20490;-72
2023/12/17 10:59:09;;;;;;;11.40;9.70;;;14.40;1.00;;;;;;5043503;28;20505;-72
2023/12/17 11:01:39;;;;;;;12.10;9.63;;;14.40;1.00;;;;;;5049252;28;20494;-72
2023/12/17 11:04:07;;;;;;;11.73;9.30;;;14.50;1.00;;;;;;5047842;28;20482;-73
2023/12/17 11:06:34;;;;;;;10.93;8.87;;;14.50;1.00;;;;;;5046842;28;20493;-72
2023/12/17 11:09:01;;;;;;;11.37;9.13;;;14.60;1.00;;;;;;5045401;28;20481;-72
2023/12/17 11:11:31;;;;;;;12.87;8.87;;;14.60;1.00;;;;;;5047598;28;20566;-72
2023/12/17 11:13:58;;;;;;;12.50;8.97;;;14.70;1.00;;;;;;5043391;28;21016;-72
2023/12/17 11:16:28;;;;;;;10.87;7.60;;;14.80;1.00;;;;;;5042084;28;21089;-72
2023/12/17 11:18:59;;;;;;;10.90;8.07;;;14.90;1.00;;;;;;5045982;28;20610;-72
2023/12/17 11:21:28;;;;;;;10.43;8.30;;;15.10;1.00;;;;;;5044109;28;20495;-72
2023/12/17 11:23:56;;;;;;;11.33;8.00;;;15.20;1.00;;;;;;5045982;28;20989;-72
2023/12/17 11:26:23;;;;;;;10.07;8.27;;;15.30;1.00;;;;;;5045784;28;20517;-72
2023/12/17 11:28:51;;;;;;;11.60;8.97;;;15.30;1.00;;;;;;5047094;28;20503;-72
2023/12/17 11:31:19;;;;;;;9.50;7.57;;;15.40;1.00;;;;;;5043349;28;20478;-72
2023/12/17 11:33:48;;;;;;;10.50;8.17;;;15.60;1.00;;;;;;5042817;28;20556;-72
2023/12/17 11:36:16;;;;;;;10.17;7.10;;;15.80;1.00;;;;;;5040239;28;20502;-73
2023/12/17 11:38:43;;;;;;;8.63;6.63;;;16.10;1.00;;;;;;5045425;28;20976;-72
2023/12/17 11:41:10;;;;;;;9.10;7.20;;;16.50;1.00;;;;;;5047465;28;20524;-72
2023/12/17 11:43:37;;;;;;;8.00;6.13;;;16.70;1.00;;;;;;5048122;28;20899;-72
2023/12/17 11:46:04;;;;;;;7.40;5.70;;;17.00;1.00;;;;;;5046067;28;20470;-72
2023/12/17 11:48:32;;;;;;;7.13;5.63;;;17.30;1.00;;;;;;5055484;23;20565;-71
2023/12/17 11:51:01;;;;;;;7.60;6.07;;;17.50;1.00;;;;;;5040856;28;20573;-70
2023/12/17 11:53:30;;;;;;;7.30;5.70;;;17.80;1.00;;;;;;5044635;28;20494;-71
2023/12/17 11:55:59;;;;;;;8.47;5.10;;;18.00;1.00;;;;;;5040486;28;20982;-71
2023/12/17 11:58:26;;;;;;;8.50;5.23;;;18.30;1.00;;;;;;5041944;28;20461;-71
2023/12/17 12:01:08;;;;;;;6.47;5.10;;;18.40;1.00;;;;;;5041326;28;20553;-71
2023/12/17 12:03:35;;;;;;;7.50;4.50;;;18.60;1.00;;;;;;5039392;28;20493;-71
2023/12/17 12:06:06;;;;;;;6.00;4.10;;;18.70;1.00;;;;;;5037206;28;20541;-71
2023/12/17 12:08:34;;;;;;;6.50;4.63;;;18.70;1.00;;;;;;5036261;28;20470;-71
2023/12/17 12:11:03;;;;;;;6.80;5.13;;;18.60;1.00;;;;;;5042479;28;20488;-71
2023/12/17 12:13:31;;;;;;;6.90;5.30;;;18.60;1.00;;;;;;5034508;28;20620;-71
2023/12/17 12:15:59;;;;;;;9.27;5.47;;;18.50;1.00;;;;;;5038254;28;20584;-71
2023/12/17 12:18:26;;;;;;;7.40;4.67;;;18.40;1.00;;;;;;5042583;28;21202;-71
2023/12/17 12:20:55;;;;;;;7.97;5.10;;;18.30;1.00;;;;;;5038231;28;20545;-71
2023/12/17 12:23:23;;;;;;;8.37;5.50;;;18.10;1.00;;;;;;5036038;28;21069;-72
2023/12/17 12:25:50;;;;;;;7.37;5.60;;;17.90;1.00;;;;;;5038710;28;20450;-71
2023/12/17 12:28:18;;;;;;;7.77;5.20;;;17.70;1.00;;;;;;5037855;28;20466;-70
2023/12/17 12:30:45;;;;;;;8.10;6.30;;;17.40;1.00;;;;;;5043080;28;20490;-71
2023/12/17 12:33:13;;;;;;;7.40;5.50;;;17.20;1.00;;;;;;5038445;28;20569;-71
2023/12/17 12:35:41;;;;;;;7.50;5.73;;;16.90;1.00;;;;;;5044413;28;20548;-71
2023/12/17 12:38:23;;;;;;;7.97;5.50;;;16.70;1.00;;;;;;5041013;28;20557;-71
2023/12/17 12:40:52;;;;;;;8.10;5.70;;;16.40;1.00;;;;;;5041184;28;20540;-72
2023/12/17 12:43:21;;;;;;;9.10;6.53;;;16.20;1.00;;;;;;5038545;28;20572;-71
2023/12/17 12:45:51;;;;;;;7.90;5.90;;;16.20;1.00;;;;;;5042488;28;20494;-71
2023/12/17 12:48:19;;;;;;;8.83;6.50;;;16.10;1.00;;;;;;5041379;28;21091;-71
2023/12/17 12:50:47;;;;;;;10.13;6.70;;;15.80;1.00;;;;;;5042454;28;20497;-71
2023/12/17 12:53:16;;;;;;;8.33;6.43;;;15.60;1.00;;;;;;5038309;28;20582;-71
2023/12/17 12:55:44;;;;;;;13.50;6.83;;;15.50;1.00;;;;;;5044510;28;20549;-71
2023/12/17 12:58:12;;;;;;;8.57;6.03;;;15.30;1.00;;;;;;5038099;28;22191;-71
2023/12/17 13:00:39;;;;;;;9.80;6.70;;;15.10;1.00;;;;;;5039088;28;20504;-71
2023/12/17 13:03:06;;;;;;;10.30;6.40;;;14.90;1.00;;;;;;5038655;28;20466;-71